sensor_id;sensor_type;location;lat;lon;timestamp;P1;durP1;ratioP1;P2;durP2;ratioP2
11135;SDS011;5622;50.840;4.948;2023-08-06T00:02:15;5.10;;;1.97;;
11135;SDS011;5622;50.840;4.948;2023-08-06T00:04:42;6.50;;;2.07;;
11135;SDS011;5622;50.840;4.948;2023-08-06T00:07:10;4.33;;;2.10;;
11135;SDS011;5622;50.840;4.948;2023-08-06T00:09:37;2.27;;;1.93;;
11135;SDS011;5622;50.840;4.948;2023-08-06T00:12:05;5.43;;;2.10;;
11135;SDS011;5622;50.840;4.948;2023-08-06T00:14:33;3.63;;;1.90;;
11135;SDS011;5622;50.840;4.948;2023-08-06T00:17:01;3.93;;;1.87;;
11135;SDS011;5622;50.840;4.948;2023-08-06T00:19:28;4.03;;;2.00;;
11135;SDS011;5622;50.840;4.948;2023-08-06T00:21:56;6.70;;;2.17;;
11135;SDS011;5622;50.840;4.948;2023-08-06T00:24:23;2.67;;;2.10;;
11135;SDS011;5622;50.840;4.948;2023-08-06T00:26:50;3.30;;;1.60;;
11135;SDS011;5622;50.840;4.948;2023-08-06T00:29:18;1.80;;;1.70;;
11135;SDS011;5622;50.840;4.948;2023-08-06T00:31:46;6.37;;;2.10;;
11135;SDS011;5622;50.840;4.948;2023-08-06T00:34:14;3.33;;;2.10;;
11135;SDS011;5622;50.840;4.948;2023-08-06T00:36:41;4.13;;;1.90;;
11135;SDS011;5622;50.840;4.948;2023-08-06T00:39:08;4.53;;;1.77;;
11135;SDS011;5622;50.840;4.948;2023-08-06T00:41:35;4.73;;;1.90;;
11135;SDS011;5622;50.840;4.948;2023-08-06T00:44:03;3.47;;;1.93;;
11135;SDS011;5622;50.840;4.948;2023-08-06T00:46:30;6.50;;;1.97;;
11135;SDS011;5622;50.840;4.948;2023-08-06T00:49:00;3.73;;;1.93;;
11135;SDS011;5622;50.840;4.948;2023-08-06T00:51:27;3.87;;;1.90;;
11135;SDS011;5622;50.840;4.948;2023-08-06T00:53:55;2.97;;;1.67;;
11135;SDS011;5622;50.840;4.948;2023-08-06T00:56:22;3.83;;;1.63;;
11135;SDS011;5622;50.840;4.948;2023-08-06T00:58:51;2.37;;;1.77;;
11135;SDS011;5622;50.840;4.948;2023-08-06T01:01:19;2.60;;;1.80;;
11135;SDS011;5622;50.840;4.948;2023-08-06T01:03:46;1.60;;;1.50;;
11135;SDS011;5622;50.840;4.948;2023-08-06T01:06:15;2.90;;;1.83;;
11135;SDS011;5622;50.840;4.948;2023-08-06T01:08:47;4.70;;;2.00;;
11135;SDS011;5622;50.840;4.948;2023-08-06T01:11:21;3.73;;;2.10;;
11135;SDS011;5622;50.840;4.948;2023-08-06T01:13:58;4.50;;;1.63;;
11135;SDS011;5622;50.840;4.948;2023-08-06T01:16:29;1.60;;;1.50;;
11135;SDS011;5622;50.840;4.948;2023-08-06T01:18:58;2.60;;;1.70;;
11135;SDS011;5622;50.840;4.948;2023-08-06T01:21:27;2.00;;;1.50;;
11135;SDS011;5622;50.840;4.948;2023-08-06T01:23:54;2.13;;;1.60;;
11135;SDS011;5622;50.840;4.948;2023-08-06T01:26:23;2.13;;;1.60;;
11135;SDS011;5622;50.840;4.948;2023-08-06T01:28:56;2.43;;;1.50;;
11135;SDS011;5622;50.840;4.948;2023-08-06T01:31:30;2.70;;;1.50;;
11135;SDS011;5622;50.840;4.948;2023-08-06T01:33:58;6.60;;;1.93;;
11135;SDS011;5622;50.840;4.948;2023-08-06T01:36:28;1.93;;;1.73;;
11135;SDS011;5622;50.840;4.948;2023-08-06T01:38:57;3.07;;;1.83;;
11135;SDS011;5622;50.840;4.948;2023-08-06T01:41:25;2.50;;;1.53;;
11135;SDS011;5622;50.840;4.948;2023-08-06T01:43:52;2.00;;;1.80;;
11135;SDS011;5622;50.840;4.948;2023-08-06T01:46:19;3.37;;;2.30;;
11135;SDS011;5622;50.840;4.948;2023-08-06T01:48:46;6.93;;;1.90;;
11135;SDS011;5622;50.840;4.948;2023-08-06T01:51:13;2.10;;;1.90;;
11135;SDS011;5622;50.840;4.948;2023-08-06T01:53:42;5.87;;;2.20;;
11135;SDS011;5622;50.840;4.948;2023-08-06T01:56:09;6.33;;;2.00;;
11135;SDS011;5622;50.840;4.948;2023-08-06T01:58:36;4.57;;;2.27;;
11135;SDS011;5622;50.840;4.948;2023-08-06T02:01:04;4.17;;;2.43;;
11135;SDS011;5622;50.840;4.948;2023-08-06T02:03:31;4.53;;;2.83;;
11135;SDS011;5622;50.840;4.948;2023-08-06T02:05:58;5.47;;;2.33;;
11135;SDS011;5622;50.840;4.948;2023-08-06T02:08:25;4.87;;;2.87;;
11135;SDS011;5622;50.840;4.948;2023-08-06T02:10:55;4.27;;;2.90;;
11135;SDS011;5622;50.840;4.948;2023-08-06T02:13:23;8.87;;;2.97;;
11135;SDS011;5622;50.840;4.948;2023-08-06T02:15:50;5.20;;;3.40;;
11135;SDS011;5622;50.840;4.948;2023-08-06T02:18:17;10.33;;;3.50;;
11135;SDS011;5622;50.840;4.948;2023-08-06T02:20:54;8.27;;;3.00;;
11135;SDS011;5622;50.840;4.948;2023-08-06T02:23:22;8.27;;;3.63;;
11135;SDS011;5622;50.840;4.948;2023-08-06T02:25:57;15.33;;;4.73;;
11135;SDS011;5622;50.840;4.948;2023-08-06T02:28:25;4.87;;;3.43;;
11135;SDS011;5622;50.840;4.948;2023-08-06T02:30:52;8.60;;;3.90;;
11135;SDS011;5622;50.840;4.948;2023-08-06T02:33:19;5.10;;;3.80;;
11135;SDS011;5622;50.840;4.948;2023-08-06T02:35:47;7.53;;;4.20;;
11135;SDS011;5622;50.840;4.948;2023-08-06T02:38:14;10.07;;;4.17;;
11135;SDS011;5622;50.840;4.948;2023-08-06T02:40:44;8.80;;;4.53;;
11135;SDS011;5622;50.840;4.948;2023-08-06T02:43:13;9.60;;;5.80;;
11135;SDS011;5622;50.840;4.948;2023-08-06T02:45:40;16.97;;;6.10;;
11135;SDS011;5622;50.840;4.948;2023-08-06T02:48:07;9.27;;;5.30;;
11135;SDS011;5622;50.840;4.948;2023-08-06T02:50:37;10.70;;;6.00;;
11135;SDS011;5622;50.840;4.948;2023-08-06T02:53:05;9.43;;;5.60;;
11135;SDS011;5622;50.840;4.948;2023-08-06T02:55:33;11.63;;;7.00;;
11135;SDS011;5622;50.840;4.948;2023-08-06T02:58:00;12.40;;;6.73;;
11135;SDS011;5622;50.840;4.948;2023-08-06T03:00:29;10.60;;;5.90;;
11135;SDS011;5622;50.840;4.948;2023-08-06T03:02:57;9.87;;;6.00;;
11135;SDS011;5622;50.840;4.948;2023-08-06T03:05:24;12.03;;;6.90;;
11135;SDS011;5622;50.840;4.948;2023-08-06T03:07:51;13.37;;;7.07;;
11135;SDS011;5622;50.840;4.948;2023-08-06T03:10:18;11.27;;;6.30;;
11135;SDS011;5622;50.840;4.948;2023-08-06T03:12:45;9.57;;;5.97;;
11135;SDS011;5622;50.840;4.948;2023-08-06T03:15:12;11.70;;;6.83;;
11135;SDS011;5622;50.840;4.948;2023-08-06T03:17:41;8.30;;;6.03;;
11135;SDS011;5622;50.840;4.948;2023-08-06T03:20:09;13.37;;;6.20;;
11135;SDS011;5622;50.840;4.948;2023-08-06T03:22:37;11.73;;;6.77;;
11135;SDS011;5622;50.840;4.948;2023-08-06T03:25:04;10.77;;;6.87;;
11135;SDS011;5622;50.840;4.948;2023-08-06T03:27:32;8.93;;;5.97;;
11135;SDS011;5622;50.840;4.948;2023-08-06T03:29:59;13.90;;;6.53;;
11135;SDS011;5622;50.840;4.948;2023-08-06T03:32:26;9.03;;;5.80;;
11135;SDS011;5622;50.840;4.948;2023-08-06T03:34:55;9.57;;;5.50;;
11135;SDS011;5622;50.840;4.948;2023-08-06T03:37:22;6.90;;;5.67;;
11135;SDS011;5622;50.840;4.948;2023-08-06T03:39:49;8.90;;;5.10;;
11135;SDS011;5622;50.840;4.948;2023-08-06T03:42:16;7.70;;;5.20;;
11135;SDS011;5622;50.840;4.948;2023-08-06T03:44:44;6.33;;;4.87;;
11135;SDS011;5622;50.840;4.948;2023-08-06T03:47:11;9.60;;;5.30;;
11135;SDS011;5622;50.840;4.948;2023-08-06T03:49:38;13.10;;;5.33;;
11135;SDS011;5622;50.840;4.948;2023-08-06T03:52:07;7.93;;;4.73;;
11135;SDS011;5622;50.840;4.948;2023-08-06T03:54:34;7.90;;;4.60;;
11135;SDS011;5622;50.840;4.948;2023-08-06T03:57:01;10.10;;;5.20;;
11135;SDS011;5622;50.840;4.948;2023-08-06T03:59:29;7.70;;;4.50;;
11135;SDS011;5622;50.840;4.948;2023-08-06T04:01:56;11.97;;;5.20;;
11135;SDS011;5622;50.840;4.948;2023-08-06T04:04:23;7.43;;;4.77;;
11135;SDS011;5622;50.840;4.948;2023-08-06T04:06:50;10.97;;;4.60;;
11135;SDS011;5622;50.840;4.948;2023-08-06T04:09:19;9.30;;;5.27;;
11135;SDS011;5622;50.840;4.948;2023-08-06T04:11:48;11.17;;;5.70;;
11135;SDS011;5622;50.840;4.948;2023-08-06T04:14:15;9.50;;;6.03;;
11135;SDS011;5622;50.840;4.948;2023-08-06T04:16:42;8.33;;;5.33;;
11135;SDS011;5622;50.840;4.948;2023-08-06T04:19:09;9.40;;;5.33;;
11135;SDS011;5622;50.840;4.948;2023-08-06T04:21:36;8.73;;;5.27;;
11135;SDS011;5622;50.840;4.948;2023-08-06T04:24:03;9.30;;;5.10;;
11135;SDS011;5622;50.840;4.948;2023-08-06T04:26:32;7.73;;;4.50;;
11135;SDS011;5622;50.840;4.948;2023-08-06T04:28:59;7.13;;;4.50;;
11135;SDS011;5622;50.840;4.948;2023-08-06T04:31:26;7.73;;;4.80;;
11135;SDS011;5622;50.840;4.948;2023-08-06T04:33:55;7.03;;;5.20;;
11135;SDS011;5622;50.840;4.948;2023-08-06T04:36:22;7.83;;;5.43;;
11135;SDS011;5622;50.840;4.948;2023-08-06T04:38:50;7.53;;;4.87;;
11135;SDS011;5622;50.840;4.948;2023-08-06T04:41:17;9.30;;;5.50;;
11135;SDS011;5622;50.840;4.948;2023-08-06T04:43:46;9.70;;;5.43;;
11135;SDS011;5622;50.840;4.948;2023-08-06T04:46:13;11.83;;;6.67;;
11135;SDS011;5622;50.840;4.948;2023-08-06T04:48:40;13.80;;;7.47;;
11135;SDS011;5622;50.840;4.948;2023-08-06T04:51:07;13.43;;;8.87;;
11135;SDS011;5622;50.840;4.948;2023-08-06T04:53:35;18.00;;;10.57;;
11135;SDS011;5622;50.840;4.948;2023-08-06T04:56:02;16.47;;;10.00;;
11135;SDS011;5622;50.840;4.948;2023-08-06T04:58:30;22.30;;;11.40;;
11135;SDS011;5622;50.840;4.948;2023-08-06T05:00:59;18.00;;;10.40;;
11135;SDS011;5622;50.840;4.948;2023-08-06T05:03:26;16.20;;;10.30;;
11135;SDS011;5622;50.840;4.948;2023-08-06T05:05:54;18.57;;;10.03;;
11135;SDS011;5622;50.840;4.948;2023-08-06T05:08:22;21.17;;;11.10;;
11135;SDS011;5622;50.840;4.948;2023-08-06T05:10:49;18.53;;;10.20;;
11135;SDS011;5622;50.840;4.948;2023-08-06T05:13:16;16.07;;;9.57;;
11135;SDS011;5622;50.840;4.948;2023-08-06T05:15:44;16.87;;;9.77;;
11135;SDS011;5622;50.840;4.948;2023-08-06T07:22:23;8.90;;;3.87;;
11135;SDS011;5622;50.840;4.948;2023-08-06T07:25:18;6.97;;;4.10;;
11135;SDS011;5622;50.840;4.948;2023-08-06T07:45:22;13.57;;;5.30;;
11135;SDS011;5622;50.840;4.948;2023-08-06T07:48:13;8.00;;;3.90;;
11135;SDS011;5622;50.840;4.948;2023-08-06T07:50:50;16.43;;;3.73;;
11135;SDS011;5622;50.840;4.948;2023-08-06T07:53:26;14.70;;;4.60;;
11135;SDS011;5622;50.840;4.948;2023-08-06T07:55:58;7.80;;;4.13;;
11135;SDS011;5622;50.840;4.948;2023-08-06T07:58:27;9.87;;;3.57;;
11135;SDS011;5622;50.840;4.948;2023-08-06T08:01:07;15.27;;;3.90;;
11135;SDS011;5622;50.840;4.948;2023-08-06T08:03:36;12.50;;;4.00;;
11135;SDS011;5622;50.840;4.948;2023-08-06T08:06:13;9.20;;;3.63;;
11135;SDS011;5622;50.840;4.948;2023-08-06T08:09:19;11.20;;;3.53;;
11135;SDS011;5622;50.840;4.948;2023-08-06T08:12:10;8.43;;;3.47;;
11135;SDS011;5622;50.840;4.948;2023-08-06T08:14:58;9.80;;;3.80;;
11135;SDS011;5622;50.840;4.948;2023-08-06T08:17:34;9.20;;;3.37;;
11135;SDS011;5622;50.840;4.948;2023-08-06T08:20:22;11.57;;;3.50;;
11135;SDS011;5622;50.840;4.948;2023-08-06T08:22:57;11.77;;;3.20;;
11135;SDS011;5622;50.840;4.948;2023-08-06T08:25:27;12.93;;;3.73;;
11135;SDS011;5622;50.840;4.948;2023-08-06T08:27:59;7.33;;;2.87;;
11135;SDS011;5622;50.840;4.948;2023-08-06T08:30:30;6.63;;;3.00;;
11135;SDS011;5622;50.840;4.948;2023-08-06T08:33:29;9.03;;;2.37;;
11135;SDS011;5622;50.840;4.948;2023-08-06T08:36:20;12.20;;;2.87;;
11135;SDS011;5622;50.840;4.948;2023-08-06T08:38:51;13.27;;;2.50;;
11135;SDS011;5622;50.840;4.948;2023-08-06T08:41:20;13.87;;;2.53;;
11135;SDS011;5622;50.840;4.948;2023-08-06T09:23:32;11.23;;;3.37;;
11135;SDS011;5622;50.840;4.948;2023-08-06T09:26:06;14.10;;;3.70;;
11135;SDS011;5622;50.840;4.948;2023-08-06T09:28:58;10.13;;;3.63;;
11135;SDS011;5622;50.840;4.948;2023-08-06T09:35:49;11.03;;;3.60;;
11135;SDS011;5622;50.840;4.948;2023-08-06T09:47:20;10.63;;;3.13;;
11135;SDS011;5622;50.840;4.948;2023-08-06T09:50:14;8.60;;;2.63;;
11135;SDS011;5622;50.840;4.948;2023-08-06T09:53:12;5.57;;;2.60;;
11135;SDS011;5622;50.840;4.948;2023-08-06T10:00:56;7.30;;;2.90;;
11135;SDS011;5622;50.840;4.948;2023-08-06T10:03:36;10.40;;;2.77;;
11135;SDS011;5622;50.840;4.948;2023-08-06T10:06:09;8.60;;;3.10;;
11135;SDS011;5622;50.840;4.948;2023-08-06T10:08:38;6.40;;;2.90;;
11135;SDS011;5622;50.840;4.948;2023-08-06T10:11:07;8.10;;;2.50;;
11135;SDS011;5622;50.840;4.948;2023-08-06T10:13:35;5.60;;;2.63;;
11135;SDS011;5622;50.840;4.948;2023-08-06T10:16:06;9.13;;;2.27;;
11135;SDS011;5622;50.840;4.948;2023-08-06T10:18:34;6.53;;;2.27;;
11135;SDS011;5622;50.840;4.948;2023-08-06T10:21:04;5.57;;;2.40;;
11135;SDS011;5622;50.840;4.948;2023-08-06T10:23:35;5.10;;;2.20;;
11135;SDS011;5622;50.840;4.948;2023-08-06T10:26:03;7.03;;;2.40;;
11135;SDS011;5622;50.840;4.948;2023-08-06T10:28:34;8.67;;;2.00;;
11135;SDS011;5622;50.840;4.948;2023-08-06T10:31:06;6.07;;;2.17;;
11135;SDS011;5622;50.840;4.948;2023-08-06T10:33:41;5.33;;;2.27;;
11135;SDS011;5622;50.840;4.948;2023-08-06T10:36:10;5.37;;;2.00;;
11135;SDS011;5622;50.840;4.948;2023-08-06T10:38:47;3.07;;;1.77;;
11135;SDS011;5622;50.840;4.948;2023-08-06T10:41:15;3.47;;;1.90;;
11135;SDS011;5622;50.840;4.948;2023-08-06T10:43:45;6.10;;;2.17;;
11135;SDS011;5622;50.840;4.948;2023-08-06T10:46:26;4.47;;;2.30;;
11135;SDS011;5622;50.840;4.948;2023-08-06T10:48:57;4.37;;;2.17;;
11135;SDS011;5622;50.840;4.948;2023-08-06T10:51:25;6.63;;;2.13;;
11135;SDS011;5622;50.840;4.948;2023-08-06T10:54:02;7.20;;;2.40;;
11135;SDS011;5622;50.840;4.948;2023-08-06T12:05:10;7.10;;;3.40;;
11135;SDS011;5622;50.840;4.948;2023-08-06T12:08:44;8.77;;;3.13;;
11135;SDS011;5622;50.840;4.948;2023-08-06T14:16:28;7.37;;;2.37;;
11135;SDS011;5622;50.840;4.948;2023-08-06T17:22:53;16.97;;;3.40;;
11135;SDS011;5622;50.840;4.948;2023-08-06T17:25:20;10.97;;;3.27;;
11135;SDS011;5622;50.840;4.948;2023-08-06T18:11:52;8.87;;;2.70;;
11135;SDS011;5622;50.840;4.948;2023-08-06T18:14:38;6.60;;;3.03;;
11135;SDS011;5622;50.840;4.948;2023-08-06T18:17:09;9.53;;;3.20;;
11135;SDS011;5622;50.840;4.948;2023-08-06T18:19:58;10.43;;;2.83;;
11135;SDS011;5622;50.840;4.948;2023-08-06T18:23:01;13.77;;;3.10;;
11135;SDS011;5622;50.840;4.948;2023-08-06T18:25:32;7.13;;;2.97;;
11135;SDS011;5622;50.840;4.948;2023-08-06T18:28:05;12.70;;;2.90;;
11135;SDS011;5622;50.840;4.948;2023-08-06T18:30:36;13.17;;;3.03;;
11135;SDS011;5622;50.840;4.948;2023-08-06T18:33:06;13.90;;;3.10;;
11135;SDS011;5622;50.840;4.948;2023-08-06T18:35:39;8.23;;;3.13;;
11135;SDS011;5622;50.840;4.948;2023-08-06T18:38:07;9.80;;;2.93;;
11135;SDS011;5622;50.840;4.948;2023-08-06T18:40:36;8.10;;;2.67;;
11135;SDS011;5622;50.840;4.948;2023-08-06T18:43:06;8.93;;;3.50;;
11135;SDS011;5622;50.840;4.948;2023-08-06T18:45:34;10.27;;;2.60;;
11135;SDS011;5622;50.840;4.948;2023-08-06T18:48:06;12.03;;;3.20;;
11135;SDS011;5622;50.840;4.948;2023-08-06T18:50:35;10.13;;;2.80;;
11135;SDS011;5622;50.840;4.948;2023-08-06T18:53:11;11.57;;;3.50;;
11135;SDS011;5622;50.840;4.948;2023-08-06T18:55:45;5.90;;;2.63;;
11135;SDS011;5622;50.840;4.948;2023-08-06T18:58:20;8.90;;;2.57;;
11135;SDS011;5622;50.840;4.948;2023-08-06T19:00:47;10.07;;;2.93;;
11135;SDS011;5622;50.840;4.948;2023-08-06T19:03:16;12.13;;;2.93;;
11135;SDS011;5622;50.840;4.948;2023-08-06T19:16:55;7.67;;;2.50;;
11135;SDS011;5622;50.840;4.948;2023-08-06T19:19:29;10.67;;;2.57;;
11135;SDS011;5622;50.840;4.948;2023-08-06T19:21:59;9.80;;;2.70;;
11135;SDS011;5622;50.840;4.948;2023-08-06T19:24:29;10.67;;;2.53;;
11135;SDS011;5622;50.840;4.948;2023-08-06T19:26:59;6.80;;;2.67;;
11135;SDS011;5622;50.840;4.948;2023-08-06T19:29:37;5.67;;;2.67;;
11135;SDS011;5622;50.840;4.948;2023-08-06T19:32:06;8.20;;;2.77;;
11135;SDS011;5622;50.840;4.948;2023-08-06T19:34:34;10.60;;;2.80;;
11135;SDS011;5622;50.840;4.948;2023-08-06T19:37:02;7.63;;;2.47;;
11135;SDS011;5622;50.840;4.948;2023-08-06T19:39:33;11.07;;;2.90;;
11135;SDS011;5622;50.840;4.948;2023-08-06T19:42:03;10.40;;;2.90;;
11135;SDS011;5622;50.840;4.948;2023-08-06T19:44:31;10.47;;;2.57;;
11135;SDS011;5622;50.840;4.948;2023-08-06T19:47:02;12.43;;;2.47;;
11135;SDS011;5622;50.840;4.948;2023-08-06T19:49:32;9.17;;;2.83;;
11135;SDS011;5622;50.840;4.948;2023-08-06T19:52:00;11.70;;;3.10;;
11135;SDS011;5622;50.840;4.948;2023-08-06T19:54:30;11.53;;;3.57;;
11135;SDS011;5622;50.840;4.948;2023-08-06T19:56:58;9.23;;;3.80;;
11135;SDS011;5622;50.840;4.948;2023-08-06T19:59:25;8.70;;;3.00;;
11135;SDS011;5622;50.840;4.948;2023-08-06T20:01:53;8.13;;;2.67;;
11135;SDS011;5622;50.840;4.948;2023-08-06T20:04:20;17.30;;;3.73;;
11135;SDS011;5622;50.840;4.948;2023-08-06T20:06:49;7.77;;;3.20;;
11135;SDS011;5622;50.840;4.948;2023-08-06T20:09:18;7.10;;;2.53;;
11135;SDS011;5622;50.840;4.948;2023-08-06T20:11:46;11.43;;;3.03;;
11135;SDS011;5622;50.840;4.948;2023-08-06T20:14:13;12.67;;;3.20;;
11135;SDS011;5622;50.840;4.948;2023-08-06T20:16:41;7.50;;;3.00;;
11135;SDS011;5622;50.840;4.948;2023-08-06T20:19:09;12.43;;;3.33;;
11135;SDS011;5622;50.840;4.948;2023-08-06T20:21:36;9.13;;;3.37;;
11135;SDS011;5622;50.840;4.948;2023-08-06T20:24:08;8.83;;;2.90;;
11135;SDS011;5622;50.840;4.948;2023-08-06T20:26:35;9.37;;;2.90;;
11135;SDS011;5622;50.840;4.948;2023-08-06T20:29:03;7.40;;;3.23;;
11135;SDS011;5622;50.840;4.948;2023-08-06T20:31:31;13.57;;;2.90;;
11135;SDS011;5622;50.840;4.948;2023-08-06T20:34:03;6.80;;;2.97;;
11135;SDS011;5622;50.840;4.948;2023-08-06T20:36:31;11.60;;;2.97;;
11135;SDS011;5622;50.840;4.948;2023-08-06T20:38:58;10.47;;;3.33;;
11135;SDS011;5622;50.840;4.948;2023-08-06T20:41:29;6.97;;;2.90;;
11135;SDS011;5622;50.840;4.948;2023-08-06T20:43:57;8.63;;;2.70;;
11135;SDS011;5622;50.840;4.948;2023-08-06T20:46:24;4.73;;;3.00;;
11135;SDS011;5622;50.840;4.948;2023-08-06T20:48:51;12.23;;;3.23;;
11135;SDS011;5622;50.840;4.948;2023-08-06T20:51:19;9.30;;;3.27;;
11135;SDS011;5622;50.840;4.948;2023-08-06T20:53:46;8.87;;;3.03;;
11135;SDS011;5622;50.840;4.948;2023-08-06T20:56:13;13.37;;;3.50;;
11135;SDS011;5622;50.840;4.948;2023-08-06T20:58:44;12.30;;;3.53;;
11135;SDS011;5622;50.840;4.948;2023-08-06T21:01:14;7.43;;;2.70;;
11135;SDS011;5622;50.840;4.948;2023-08-06T21:03:41;8.47;;;2.60;;
11135;SDS011;5622;50.840;4.948;2023-08-06T21:06:10;12.60;;;3.57;;
11135;SDS011;5622;50.840;4.948;2023-08-06T21:08:37;8.13;;;2.53;;
11135;SDS011;5622;50.840;4.948;2023-08-06T21:11:05;14.53;;;3.37;;
11135;SDS011;5622;50.840;4.948;2023-08-06T21:13:33;10.50;;;3.07;;
11135;SDS011;5622;50.840;4.948;2023-08-06T21:16:03;8.93;;;2.80;;
11135;SDS011;5622;50.840;4.948;2023-08-06T21:18:30;8.87;;;2.97;;
11135;SDS011;5622;50.840;4.948;2023-08-06T21:20:58;9.47;;;3.13;;
11135;SDS011;5622;50.840;4.948;2023-08-06T21:23:26;10.83;;;3.30;;
11135;SDS011;5622;50.840;4.948;2023-08-06T21:25:55;15.80;;;3.83;;
11135;SDS011;5622;50.840;4.948;2023-08-06T21:28:23;7.40;;;2.67;;
11135;SDS011;5622;50.840;4.948;2023-08-06T21:30:54;10.77;;;3.13;;
11135;SDS011;5622;50.840;4.948;2023-08-06T21:33:23;14.20;;;3.47;;
11135;SDS011;5622;50.840;4.948;2023-08-06T21:35:51;15.20;;;3.10;;
11135;SDS011;5622;50.840;4.948;2023-08-06T21:38:19;14.90;;;3.73;;
11135;SDS011;5622;50.840;4.948;2023-08-06T21:40:46;11.13;;;3.40;;
11135;SDS011;5622;50.840;4.948;2023-08-06T21:43:13;10.60;;;3.13;;
11135;SDS011;5622;50.840;4.948;2023-08-06T21:45:41;11.57;;;2.83;;
11135;SDS011;5622;50.840;4.948;2023-08-06T21:48:08;9.43;;;2.93;;
11135;SDS011;5622;50.840;4.948;2023-08-06T21:50:36;6.70;;;3.00;;
11135;SDS011;5622;50.840;4.948;2023-08-06T21:53:04;9.77;;;3.40;;
11135;SDS011;5622;50.840;4.948;2023-08-06T21:55:31;11.93;;;4.17;;
11135;SDS011;5622;50.840;4.948;2023-08-06T21:57:58;9.23;;;3.30;;
11135;SDS011;5622;50.840;4.948;2023-08-06T22:00:26;9.33;;;3.63;;
11135;SDS011;5622;50.840;4.948;2023-08-06T22:02:53;9.47;;;3.23;;
11135;SDS011;5622;50.840;4.948;2023-08-06T22:05:20;11.53;;;3.77;;
11135;SDS011;5622;50.840;4.948;2023-08-06T22:07:48;14.83;;;3.73;;
11135;SDS011;5622;50.840;4.948;2023-08-06T22:10:16;10.60;;;3.40;;
11135;SDS011;5622;50.840;4.948;2023-08-06T22:12:43;12.87;;;3.43;;
11135;SDS011;5622;50.840;4.948;2023-08-06T22:15:11;7.40;;;3.00;;
11135;SDS011;5622;50.840;4.948;2023-08-06T22:17:38;10.07;;;3.33;;
11135;SDS011;5622;50.840;4.948;2023-08-06T22:20:05;7.87;;;3.40;;
11135;SDS011;5622;50.840;4.948;2023-08-06T22:22:33;14.43;;;3.53;;
11135;SDS011;5622;50.840;4.948;2023-08-06T22:25:06;6.13;;;3.00;;
11135;SDS011;5622;50.840;4.948;2023-08-06T22:27:33;7.23;;;3.43;;
11135;SDS011;5622;50.840;4.948;2023-08-06T22:30:01;10.87;;;3.57;;
11135;SDS011;5622;50.840;4.948;2023-08-06T22:32:28;10.63;;;3.30;;
11135;SDS011;5622;50.840;4.948;2023-08-06T22:34:55;8.53;;;3.20;;
11135;SDS011;5622;50.840;4.948;2023-08-06T22:37:23;10.67;;;3.63;;
11135;SDS011;5622;50.840;4.948;2023-08-06T22:39:50;7.73;;;3.47;;
11135;SDS011;5622;50.840;4.948;2023-08-06T22:42:24;10.00;;;3.60;;
11135;SDS011;5622;50.840;4.948;2023-08-06T22:44:52;10.33;;;3.40;;
11135;SDS011;5622;50.840;4.948;2023-08-06T22:47:20;11.43;;;4.27;;
11135;SDS011;5622;50.840;4.948;2023-08-06T22:49:47;8.80;;;3.60;;
11135;SDS011;5622;50.840;4.948;2023-08-06T22:52:15;9.97;;;3.30;;
11135;SDS011;5622;50.840;4.948;2023-08-06T22:54:42;6.47;;;3.70;;
11135;SDS011;5622;50.840;4.948;2023-08-06T22:57:10;10.87;;;3.80;;
11135;SDS011;5622;50.840;4.948;2023-08-06T22:59:38;13.30;;;3.73;;
11135;SDS011;5622;50.840;4.948;2023-08-06T23:02:06;11.50;;;3.83;;
11135;SDS011;5622;50.840;4.948;2023-08-06T23:04:33;11.00;;;3.70;;
11135;SDS011;5622;50.840;4.948;2023-08-06T23:07:00;10.30;;;3.33;;
11135;SDS011;5622;50.840;4.948;2023-08-06T23:09:27;6.20;;;2.80;;
11135;SDS011;5622;50.840;4.948;2023-08-06T23:11:54;11.40;;;3.53;;
11135;SDS011;5622;50.840;4.948;2023-08-06T23:14:22;9.27;;;3.43;;
11135;SDS011;5622;50.840;4.948;2023-08-06T23:16:50;5.93;;;3.43;;
11135;SDS011;5622;50.840;4.948;2023-08-06T23:19:18;12.33;;;3.37;;
11135;SDS011;5622;50.840;4.948;2023-08-06T23:21:45;13.37;;;3.80;;
11135;SDS011;5622;50.840;4.948;2023-08-06T23:24:13;10.03;;;3.17;;
11135;SDS011;5622;50.840;4.948;2023-08-06T23:26:40;5.40;;;3.13;;
11135;SDS011;5622;50.840;4.948;2023-08-06T23:29:07;12.70;;;4.03;;
11135;SDS011;5622;50.840;4.948;2023-08-06T23:31:35;11.50;;;4.00;;
11135;SDS011;5622;50.840;4.948;2023-08-06T23:34:03;10.53;;;3.53;;
11135;SDS011;5622;50.840;4.948;2023-08-06T23:36:32;13.87;;;4.23;;
11135;SDS011;5622;50.840;4.948;2023-08-06T23:38:59;14.07;;;3.80;;
11135;SDS011;5622;50.840;4.948;2023-08-06T23:41:26;8.47;;;3.00;;
11135;SDS011;5622;50.840;4.948;2023-08-06T23:43:53;9.77;;;3.73;;
11135;SDS011;5622;50.840;4.948;2023-08-06T23:46:21;9.37;;;3.70;;
11135;SDS011;5622;50.840;4.948;2023-08-06T23:48:48;10.57;;;3.63;;
11135;SDS011;5622;50.840;4.948;2023-08-06T23:51:16;16.33;;;3.77;;
11135;SDS011;5622;50.840;4.948;2023-08-06T23:53:44;8.10;;;3.00;;
11135;SDS011;5622;50.840;4.948;2023-08-06T23:56:11;8.30;;;3.13;;
11135;SDS011;5622;50.840;4.948;2023-08-06T23:58:38;5.37;;;2.87;;
